Time;durP1;ratioP1;P1;durP2;ratioP2;P2;SDS_P1;SDS_P2;PMS_P1;PMS_P2;Temp;Humidity;BMP_temperature;BMP_pressure;BME280_temperature;BME280_humidity;BME280_pressure;Samples;Min_cycle;Max_cycle;Signal;HPM_P1;HPM_P2
2023/11/29 00:03:46;;;;;;;11.07;10.17;;;3.60;99.90;;;;;;10329353;28;20223;-79
2023/11/29 00:08:48;;;;;;;11.30;10.40;;;3.70;99.90;;;;;;10309254;28;20293;-78
2023/11/29 00:13:52;;;;;;;12.60;11.40;;;3.70;99.90;;;;;;10343331;28;20187;-78
2023/11/29 00:18:55;;;;;;;11.70;10.70;;;3.70;99.90;;;;;;10314343;28;20215;-78
2023/11/29 00:23:58;;;;;;;11.57;10.50;;;3.70;99.90;;;;;;10330926;28;20246;-78
2023/11/29 00:29:01;;;;;;;10.10;9.30;;;3.70;99.90;;;;;;10305294;28;20229;-78
2023/11/29 00:34:04;;;;;;;11.83;10.80;;;3.70;99.90;;;;;;10307224;28;20203;-78
2023/11/29 00:39:06;;;;;;;11.50;10.50;;;3.70;99.90;;;;;;10324129;28;20234;-78
2023/11/29 00:44:10;;;;;;;10.13;9.33;;;3.70;99.90;;;;;;10331917;28;20230;-78
2023/11/29 00:49:13;;;;;;;10.60;9.70;;;3.60;99.90;;;;;;10306186;28;20227;-78
2023/11/29 00:54:16;;;;;;;12.80;11.70;;;3.50;99.90;;;;;;10316953;28;20192;-78
2023/11/29 00:59:19;;;;;;;24.80;22.27;;;3.40;99.90;;;;;;10310386;28;20227;-77
2023/11/29 01:04:22;;;;;;;12.50;11.30;;;3.40;99.90;;;;;;10302701;28;20216;-78
2023/11/29 01:09:24;;;;;;;11.17;10.17;;;3.40;99.90;;;;;;10328111;28;20615;-78
2023/11/29 01:14:28;;;;;;;11.70;10.70;;;3.30;99.90;;;;;;10311690;28;20226;-78
2023/11/29 01:19:30;;;;;;;11.33;10.43;;;3.20;99.90;;;;;;10317730;28;20235;-78
2023/11/29 01:24:32;;;;;;;11.50;10.60;;;3.20;99.90;;;;;;10327164;28;20635;-76
2023/11/29 01:29:37;;;;;;;12.17;11.07;;;3.20;99.90;;;;;;10300989;28;20270;-77
2023/11/29 01:34:42;;;;;;;12.80;11.70;;;3.20;99.90;;;;;;10323461;28;20207;-77
2023/11/29 01:39:47;;;;;;;11.70;10.80;;;3.10;99.90;;;;;;10312840;28;20227;-77
2023/11/29 01:44:50;;;;;;;12.47;11.37;;;3.00;99.90;;;;;;10319028;28;20215;-77
2023/11/29 01:49:53;;;;;;;12.40;11.30;;;3.00;99.90;;;;;;10321047;28;20227;-76
2023/11/29 01:54:55;;;;;;;12.20;11.17;;;3.00;99.90;;;;;;10303781;28;20195;-77
2023/11/29 01:59:59;;;;;;;11.83;10.83;;;3.00;99.90;;;;;;10301968;28;20225;-76
2023/11/29 02:05:01;;;;;;;12.70;11.60;;;3.10;99.90;;;;;;10303287;28;20222;-77
2023/11/29 02:10:05;;;;;;;12.27;11.27;;;3.10;99.90;;;;;;10311058;28;20223;-77
2023/11/29 02:15:11;;;;;;;12.33;11.13;;;3.10;99.90;;;;;;10314459;28;20662;-77
2023/11/29 02:20:14;;;;;;;12.27;11.17;;;3.10;99.90;;;;;;10316157;28;20228;-77
2023/11/29 02:25:18;;;;;;;12.93;11.83;;;3.10;99.90;;;;;;10311787;28;20223;-77
2023/11/29 02:30:21;;;;;;;12.53;11.33;;;3.10;99.90;;;;;;10305976;28;20709;-77
2023/11/29 02:35:23;;;;;;;12.70;11.40;;;3.10;99.90;;;;;;10307687;28;20618;-77
2023/11/29 02:40:27;;;;;;;11.60;10.60;;;3.10;99.90;;;;;;10327364;28;20701;-77
2023/11/29 02:45:29;;;;;;;10.83;9.93;;;3.00;99.90;;;;;;10331317;28;20293;-77
2023/11/29 02:50:32;;;;;;;10.77;9.77;;;2.90;99.90;;;;;;10309488;28;20289;-77
2023/11/29 02:55:35;;;;;;;12.57;9.30;;;2.70;99.90;;;;;;10317021;28;20196;-77
2023/11/29 03:00:39;;;;;;;9.13;8.40;;;2.60;99.90;;;;;;10311167;28;20219;-77
2023/11/29 03:05:41;;;;;;;8.90;8.20;;;2.50;99.90;;;;;;10328424;28;20254;-77
2023/11/29 03:10:45;;;;;;;9.20;8.40;;;2.40;99.90;;;;;;10311610;28;20297;-77
2023/11/29 03:15:48;;;;;;;8.97;8.20;;;2.30;99.90;;;;;;10368652;23;20234;-78
2023/11/29 03:20:50;;;;;;;9.20;8.40;;;2.10;99.90;;;;;;10343764;28;20726;-75
2023/11/29 03:25:54;;;;;;;9.60;8.80;;;2.00;99.90;;;;;;10350501;28;20809;-75
2023/11/29 03:30:57;;;;;;;8.50;7.80;;;2.00;99.90;;;;;;10334820;28;20246;-74
2023/11/29 03:35:59;;;;;;;9.20;8.40;;;1.90;99.90;;;;;;10353833;28;20218;-75
2023/11/29 03:41:03;;;;;;;9.97;9.07;;;1.90;99.90;;;;;;10343442;28;20257;-75
2023/11/29 03:46:05;;;;;;;9.63;8.83;;;1.90;99.90;;;;;;10343642;28;20226;-75
2023/11/29 03:51:07;;;;;;;10.83;9.57;;;1.80;99.90;;;;;;10362020;28;20684;-75
2023/11/29 03:56:11;;;;;;;10.20;9.20;;;1.80;99.90;;;;;;10345294;28;20222;-75
2023/11/29 04:01:13;;;;;;;10.70;9.70;;;1.80;99.90;;;;;;10346352;28;20252;-75
2023/11/29 04:06:24;;;;;;;11.03;9.90;;;1.90;99.90;;;;;;10342442;28;20226;-75
2023/11/29 04:11:28;;;;;;;11.13;10.13;;;1.90;99.90;;;;;;10342371;28;20299;-75
2023/11/29 04:16:31;;;;;;;11.30;10.10;;;1.90;99.90;;;;;;10334145;28;20225;-75
2023/11/29 04:21:35;;;;;;;11.37;10.37;;;2.00;99.90;;;;;;10342736;28;20199;-75
2023/11/29 04:26:40;;;;;;;11.37;10.27;;;2.10;99.90;;;;;;10337950;28;20640;-75
2023/11/29 04:31:43;;;;;;;12.67;11.47;;;2.10;99.90;;;;;;10347117;28;20660;-75
2023/11/29 04:36:45;;;;;;;11.53;10.43;;;2.10;99.90;;;;;;10347443;28;20299;-75
2023/11/29 04:41:50;;;;;;;11.97;10.77;;;2.20;99.90;;;;;;10335025;28;20206;-75
2023/11/29 04:46:52;;;;;;;12.53;11.23;;;2.20;99.90;;;;;;10336628;28;20789;-75
2023/11/29 04:51:54;;;;;;;12.43;11.23;;;2.10;99.90;;;;;;10339550;28;20218;-74
2023/11/29 04:56:58;;;;;;;12.97;11.77;;;2.10;99.90;;;;;;10354988;28;20256;-75
2023/11/29 05:02:00;;;;;;;11.20;10.10;;;2.20;99.90;;;;;;10351468;28;20199;-74
2023/11/29 05:07:03;;;;;;;12.77;11.57;;;2.30;99.90;;;;;;10334219;28;20625;-75
2023/11/29 05:12:07;;;;;;;11.90;10.70;;;2.30;99.90;;;;;;10355970;28;20210;-75
2023/11/29 05:17:10;;;;;;;11.50;10.47;;;2.40;99.90;;;;;;10356592;28;20249;-75
2023/11/29 05:22:12;;;;;;;12.10;11.00;;;2.40;99.90;;;;;;10355789;28;20210;-75
2023/11/29 05:27:16;;;;;;;12.07;10.77;;;2.60;99.90;;;;;;10360707;28;20210;-76
2023/11/29 05:32:18;;;;;;;11.10;10.10;;;2.70;99.90;;;;;;10335290;28;20257;-75
2023/11/29 05:37:20;;;;;;;11.50;10.50;;;2.80;99.90;;;;;;10329982;28;20206;-75
2023/11/29 05:42:24;;;;;;;10.47;9.37;;;2.90;99.90;;;;;;10355695;28;20280;-76
2023/11/29 05:47:26;;;;;;;10.50;9.57;;;3.00;99.90;;;;;;10340746;28;20215;-75
2023/11/29 05:52:29;;;;;;;11.97;10.73;;;2.90;99.90;;;;;;10333603;28;20227;-75
2023/11/29 05:57:32;;;;;;;11.13;10.03;;;3.00;99.90;;;;;;10335349;28;20207;-76
2023/11/29 06:02:35;;;;;;;10.20;9.30;;;3.00;99.90;;;;;;10338353;28;20261;-76
2023/11/29 06:07:38;;;;;;;10.87;9.87;;;3.00;99.90;;;;;;10329089;28;20226;-76
2023/11/29 06:12:41;;;;;;;10.13;9.23;;;3.10;99.90;;;;;;10368044;28;20734;-76
2023/11/29 06:17:45;;;;;;;10.17;9.20;;;3.20;99.90;;;;;;10368845;28;20678;-76
2023/11/29 06:22:48;;;;;;;10.50;9.50;;;3.20;99.90;;;;;;10369676;28;20288;-76
2023/11/29 06:27:52;;;;;;;10.03;9.10;;;3.20;99.90;;;;;;10370497;28;20222;-77
2023/11/29 06:32:54;;;;;;;10.63;9.63;;;3.20;99.90;;;;;;10344671;28;20770;-76
2023/11/29 06:37:57;;;;;;;9.97;9.07;;;3.30;99.90;;;;;;10363585;28;20207;-76
2023/11/29 06:43:00;;;;;;;11.57;10.47;;;3.30;99.90;;;;;;10356438;28;20219;-76
2023/11/29 06:48:03;;;;;;;11.43;10.37;;;3.30;99.90;;;;;;10348798;28;20269;-76
2023/11/29 06:53:07;;;;;;;11.47;10.43;;;3.30;99.90;;;;;;10357535;28;20717;-76
2023/11/29 06:58:10;;;;;;;10.50;9.60;;;3.40;99.90;;;;;;10358633;28;20199;-76
2023/11/29 07:03:13;;;;;;;10.60;9.60;;;3.40;99.90;;;;;;10351223;28;20227;-76
2023/11/29 07:08:15;;;;;;;11.67;10.50;;;3.50;99.90;;;;;;10358251;28;20695;-77
2023/11/29 07:13:19;;;;;;;10.80;9.70;;;3.50;99.90;;;;;;10338181;28;20226;-76
2023/11/29 07:18:21;;;;;;;10.87;9.87;;;3.50;99.90;;;;;;10359835;28;20186;-76
2023/11/29 07:23:24;;;;;;;10.30;9.30;;;3.60;99.90;;;;;;10362612;28;20226;-77
2023/11/29 07:28:27;;;;;;;9.83;8.93;;;3.40;99.90;;;;;;10344311;28;20218;-77
2023/11/29 07:33:30;;;;;;;10.17;9.27;;;3.30;99.90;;;;;;10354924;28;20223;-76
2023/11/29 07:38:32;;;;;;;10.00;9.00;;;3.40;99.90;;;;;;10356654;28;20246;-76
2023/11/29 07:43:36;;;;;;;10.40;9.30;;;3.50;99.90;;;;;;10357615;28;20637;-76
2023/11/29 07:48:38;;;;;;;10.30;9.30;;;3.50;99.90;;;;;;10358430;28;20219;-76
2023/11/29 07:53:41;;;;;;;8.80;8.00;;;3.50;99.90;;;;;;10359280;28;20639;-76
2023/11/29 07:58:46;;;;;;;10.00;9.10;;;3.50;99.90;;;;;;10359386;28;20199;-76
2023/11/29 08:03:49;;;;;;;9.00;8.30;;;3.50;99.90;;;;;;10353911;28;20219;-77
2023/11/29 08:08:51;;;;;;;8.70;7.90;;;3.50;99.90;;;;;;10341750;28;20666;-76
2023/11/29 08:13:55;;;;;;;8.80;7.93;;;3.50;99.90;;;;;;10314066;28;20305;-76
2023/11/29 08:18:58;;;;;;;7.80;7.10;;;3.60;99.90;;;;;;10350861;28;20261;-76
2023/11/29 08:24:01;;;;;;;7.87;7.17;;;3.60;99.90;;;;;;10350574;28;20218;-75
2023/11/29 08:29:05;;;;;;;8.00;7.30;;;3.60;99.90;;;;;;10348549;28;20297;-76
2023/11/29 08:34:07;;;;;;;7.73;7.13;;;3.60;99.90;;;;;;10336456;28;20292;-76
2023/11/29 08:39:11;;;;;;;7.60;6.90;;;3.60;99.90;;;;;;10347978;28;20202;-77
2023/11/29 08:44:16;;;;;;;7.97;7.13;;;3.70;99.90;;;;;;10339895;28;20308;-76
2023/11/29 08:49:18;;;;;;;6.97;6.47;;;3.70;99.90;;;;;;10333417;28;20221;-76
2023/11/29 08:54:22;;;;;;;6.70;6.20;;;3.70;99.90;;;;;;10339582;28;20219;-76
2023/11/29 08:59:25;;;;;;;8.40;7.70;;;3.70;99.90;;;;;;10329245;28;20192;-76
2023/11/29 09:04:28;;;;;;;8.13;7.43;;;3.70;99.90;;;;;;10312663;28;20223;-76
2023/11/29 09:09:30;;;;;;;8.00;7.30;;;3.80;99.90;;;;;;10340559;28;20227;-76
2023/11/29 09:14:34;;;;;;;6.93;6.17;;;3.90;99.90;;;;;;10346232;28;20230;-76
2023/11/29 09:19:36;;;;;;;7.20;6.60;;;3.90;99.90;;;;;;10332596;28;20203;-77
2023/11/29 09:24:39;;;;;;;6.43;5.83;;;3.90;99.90;;;;;;10329354;28;20221;-76
2023/11/29 09:29:42;;;;;;;6.63;6.03;;;3.80;99.90;;;;;;10333767;28;20696;-76
2023/11/29 09:34:45;;;;;;;6.70;6.20;;;3.90;99.90;;;;;;10331761;28;20222;-76
2023/11/29 09:39:48;;;;;;;7.90;7.20;;;4.00;99.90;;;;;;10335206;28;20197;-77
2023/11/29 09:44:53;;;;;;;8.33;6.13;;;4.10;99.90;;;;;;10334449;28;20306;-77
2023/11/29 09:49:58;;;;;;;7.03;6.43;;;4.20;99.90;;;;;;10316678;28;20604;-77
2023/11/29 09:55:01;;;;;;;7.10;6.40;;;4.30;99.90;;;;;;10324443;28;20215;-77
2023/11/29 10:00:09;;;;;;;6.90;6.30;;;4.40;99.80;;;;;;10318881;28;20210;-77
2023/11/29 10:05:13;;;;;;;6.50;6.00;;;4.40;99.50;;;;;;10336055;28;20722;-77
2023/11/29 10:10:15;;;;;;;7.57;6.00;;;4.40;99.60;;;;;;10336911;28;20628;-77
2023/11/29 10:15:19;;;;;;;6.40;5.90;;;4.40;99.80;;;;;;10336529;28;20284;-77
2023/11/29 10:20:25;;;;;;;6.63;6.13;;;4.40;99.60;;;;;;10339142;28;20249;-77
2023/11/29 10:25:29;;;;;;;6.03;5.53;;;4.40;99.20;;;;;;10337414;28;20814;-77
2023/11/29 10:30:33;;;;;;;6.40;5.90;;;4.50;99.80;;;;;;10345731;28;20635;-76
2023/11/29 10:35:37;;;;;;;5.80;5.40;;;4.80;99.90;;;;;;10343895;28;20708;-77
2023/11/29 10:40:42;;;;;;;7.63;5.43;;;4.90;99.70;;;;;;10346273;28;20556;-77
2023/11/29 10:45:50;;;;;;;7.03;6.30;;;5.10;99.40;;;;;;10344791;28;20270;-77
2023/11/29 10:50:54;;;;;;;6.03;5.53;;;5.20;99.90;;;;;;10364072;28;20218;-77
2023/11/29 10:55:56;;;;;;;5.30;4.90;;;5.20;99.20;;;;;;10324297;28;20223;-77
2023/11/29 11:01:00;;;;;;;5.93;5.10;;;5.30;99.20;;;;;;10319331;28;20262;-77
2023/11/29 11:06:37;;;;;;;5.27;4.87;;;5.40;99.60;;;;;;10351139;28;20221;-77
2023/11/29 11:11:46;;;;;;;4.10;3.90;;;5.40;98.20;;;;;;10385153;28;20194;-77
2023/11/29 11:16:57;;;;;;;5.23;4.83;;;5.40;98.00;;;;;;10377937;28;20233;-77
2023/11/29 11:22:00;;;;;;;5.23;4.77;;;5.30;98.20;;;;;;10366202;28;20261;-77
2023/11/29 11:27:09;;;;;;;4.90;4.60;;;5.40;97.70;;;;;;10382579;28;20230;-77
2023/11/29 11:32:13;;;;;;;5.40;5.00;;;5.40;98.00;;;;;;10375368;28;20223;-77
2023/11/29 11:37:15;;;;;;;4.87;4.57;;;5.50;98.00;;;;;;10376633;28;20198;-77
2023/11/29 11:42:18;;;;;;;4.60;4.20;;;5.50;97.50;;;;;;10363271;28;20226;-77
2023/11/29 11:47:21;;;;;;;4.37;3.97;;;5.50;97.50;;;;;;10373463;28;20223;-77
2023/11/29 11:52:24;;;;;;;4.33;4.03;;;5.50;97.50;;;;;;10354370;28;20768;-74
2023/11/29 11:57:30;;;;;;;4.10;3.80;;;5.40;97.30;;;;;;10360659;28;20203;-76
2023/11/29 12:02:34;;;;;;;4.73;4.33;;;5.20;97.20;;;;;;10344817;28;20227;-77
2023/11/29 12:07:40;;;;;;;4.57;4.20;;;5.20;97.30;;;;;;10351248;28;20644;-77
2023/11/29 12:12:43;;;;;;;4.97;4.57;;;5.20;98.00;;;;;;10361619;28;20830;-77
2023/11/29 12:17:48;;;;;;;4.17;3.93;;;5.20;97.80;;;;;;10360883;28;20199;-77
2023/11/29 12:22:52;;;;;;;4.40;4.10;;;5.10;97.90;;;;;;10361703;28;20207;-77
2023/11/29 12:27:55;;;;;;;4.53;4.23;;;5.20;97.50;;;;;;10353400;28;20227;-77
2023/11/29 12:33:01;;;;;;;6.17;5.60;;;5.10;98.00;;;;;;10361003;28;20230;-77
2023/11/29 12:38:03;;;;;;;4.27;3.97;;;5.10;97.50;;;;;;10360352;28;20629;-77
2023/11/29 12:43:06;;;;;;;4.30;4.00;;;5.00;97.50;;;;;;10355072;28;20282;-77
2023/11/29 12:48:10;;;;;;;4.50;4.20;;;5.10;97.70;;;;;;10355029;28;20650;-77
2023/11/29 12:53:15;;;;;;;5.33;4.00;;;5.20;97.80;;;;;;10348018;28;20227;-77
2023/11/29 12:58:18;;;;;;;4.20;3.90;;;5.20;97.40;;;;;;10357225;28;20198;-77
2023/11/29 13:03:21;;;;;;;5.53;5.03;;;5.20;97.70;;;;;;10357486;28;20708;-77
2023/11/29 13:08:24;;;;;;;8.20;4.40;;;5.10;97.40;;;;;;10335748;28;20277;-77
2023/11/29 13:13:26;;;;;;;5.33;4.93;;;5.00;97.20;;;;;;10327448;28;20716;-77
2023/11/29 13:18:30;;;;;;;3.73;3.50;;;4.90;97.30;;;;;;10329471;28;20195;-77
2023/11/29 13:23:33;;;;;;;4.00;3.70;;;4.90;97.70;;;;;;10343910;28;20226;-77
2023/11/29 13:28:35;;;;;;;4.17;3.77;;;4.90;98.00;;;;;;10329263;28;20600;-77
2023/11/29 13:33:39;;;;;;;4.30;4.00;;;5.00;98.10;;;;;;10345811;28;20222;-77
2023/11/29 13:38:41;;;;;;;4.63;4.23;;;5.00;98.00;;;;;;10332747;28;20195;-77
2023/11/29 13:43:44;;;;;;;4.73;4.33;;;5.00;98.00;;;;;;10338381;28;20608;-77
2023/11/29 13:48:48;;;;;;;4.77;4.43;;;5.00;98.00;;;;;;10316189;28;20227;-77
2023/11/29 13:53:50;;;;;;;4.63;4.23;;;5.20;97.90;;;;;;10340191;28;20226;-77
2023/11/29 13:58:58;;;;;;;3.90;3.57;;;5.30;98.10;;;;;;10333617;28;20729;-77
2023/11/29 14:04:02;;;;;;;4.20;3.90;;;5.30;97.80;;;;;;10340540;28;20226;-78
2023/11/29 14:09:04;;;;;;;3.93;3.63;;;5.30;97.50;;;;;;10342879;28;20211;-77
2023/11/29 14:14:07;;;;;;;5.00;4.50;;;5.40;98.10;;;;;;10341292;28;20231;-77
2023/11/29 14:19:11;;;;;;;4.20;3.80;;;5.50;97.80;;;;;;10340854;28;20748;-77
2023/11/29 14:24:14;;;;;;;5.40;3.60;;;5.50;97.70;;;;;;10356798;28;20251;-76
2023/11/29 14:29:17;;;;;;;3.90;3.67;;;5.60;97.90;;;;;;10359887;28;20222;-76
2023/11/29 14:34:21;;;;;;;3.90;3.50;;;5.60;98.30;;;;;;10356824;28;20230;-76
2023/11/29 14:39:25;;;;;;;4.50;4.10;;;5.60;98.30;;;;;;10361455;28;20265;-76
2023/11/29 14:44:28;;;;;;;4.43;4.10;;;5.60;98.40;;;;;;10335407;28;20759;-77
2023/11/29 14:49:32;;;;;;;5.90;5.40;;;5.70;99.00;;;;;;10329514;28;20704;-76
2023/11/29 14:54:34;;;;;;;7.70;5.30;;;5.70;99.40;;;;;;10328554;28;20226;-76
2023/11/29 14:59:37;;;;;;;4.47;4.10;;;5.80;98.90;;;;;;10354273;28;20629;-76
2023/11/29 15:04:40;;;;;;;4.40;4.10;;;5.80;98.90;;;;;;10353492;28;20598;-76
2023/11/29 15:09:43;;;;;;;4.70;4.40;;;5.70;98.60;;;;;;10361051;28;20219;-77
2023/11/29 15:14:45;;;;;;;5.60;4.07;;;5.60;98.60;;;;;;10364246;23;20235;-79
2023/11/29 15:19:49;;;;;;;4.23;3.83;;;5.50;99.00;;;;;;10312768;28;20570;-78
2023/11/29 15:24:51;;;;;;;4.47;3.97;;;5.50;99.00;;;;;;10311619;28;20226;-78
2023/11/29 15:29:53;;;;;;;5.47;4.43;;;5.50;99.20;;;;;;10316316;28;20211;-79
2023/11/29 15:34:57;;;;;;;4.80;4.40;;;5.50;99.10;;;;;;10330151;28;20219;-79
2023/11/29 15:39:59;;;;;;;5.57;5.03;;;5.40;99.50;;;;;;10343614;28;20199;-77
2023/11/29 15:45:02;;;;;;;5.33;4.93;;;5.30;99.80;;;;;;10334564;28;20223;-79
2023/11/29 15:50:07;;;;;;;6.00;5.50;;;5.30;99.90;;;;;;10321772;28;20649;-79
2023/11/29 15:55:10;;;;;;;5.10;4.70;;;5.20;99.90;;;;;;10325889;28;20223;-79
2023/11/29 16:00:13;;;;;;;5.77;4.70;;;5.10;99.90;;;;;;10327557;28;21204;-79
2023/11/29 16:05:17;;;;;;;6.00;4.87;;;5.00;99.90;;;;;;10333445;28;20229;-79
2023/11/29 16:10:20;;;;;;;5.97;5.43;;;4.90;99.90;;;;;;10321878;28;20215;-78
2023/11/29 16:15:22;;;;;;;5.80;5.30;;;4.90;99.90;;;;;;10303674;28;20866;-79
2023/11/29 16:20:26;;;;;;;6.13;5.63;;;4.90;99.90;;;;;;10325308;28;20192;-78
2023/11/29 16:25:28;;;;;;;5.47;4.97;;;4.90;99.90;;;;;;10327176;28;20226;-78
2023/11/29 16:30:30;;;;;;;5.40;5.00;;;4.90;99.90;;;;;;10322420;28;20225;-78
2023/11/29 16:35:34;;;;;;;6.63;5.80;;;4.90;99.90;;;;;;10323762;28;20594;-79
2023/11/29 16:40:36;;;;;;;6.03;5.50;;;4.80;99.90;;;;;;10331142;28;20265;-78
2023/11/29 16:45:39;;;;;;;5.47;4.93;;;4.80;99.90;;;;;;10317417;28;20226;-79
2023/11/29 16:50:43;;;;;;;5.50;5.03;;;4.60;99.90;;;;;;10300511;28;20231;-79
2023/11/29 16:55:45;;;;;;;6.67;4.43;;;4.60;99.90;;;;;;10326401;28;20219;-77
2023/11/29 17:00:47;;;;;;;6.30;5.70;;;4.50;99.90;;;;;;10319700;28;20275;-79
2023/11/29 17:05:51;;;;;;;7.67;5.50;;;4.50;99.90;;;;;;10319874;28;20211;-79
2023/11/29 17:10:54;;;;;;;4.63;4.30;;;4.50;99.90;;;;;;10313468;28;20223;-78
2023/11/29 17:15:56;;;;;;;4.37;4.07;;;4.40;99.90;;;;;;10321873;28;20293;-78
2023/11/29 17:21:00;;;;;;;4.40;4.00;;;4.40;99.90;;;;;;10322757;28;20195;-78
2023/11/29 17:26:03;;;;;;;4.27;3.87;;;4.50;99.90;;;;;;10316132;28;20278;-78
2023/11/29 17:31:06;;;;;;;3.90;3.60;;;4.50;99.90;;;;;;10326745;28;20207;-77
2023/11/29 17:36:10;;;;;;;3.97;3.67;;;4.60;99.90;;;;;;10307844;28;20227;-78
2023/11/29 17:41:13;;;;;;;3.37;3.07;;;4.70;99.90;;;;;;10325994;28;21047;-78
2023/11/29 17:46:15;;;;;;;3.33;3.13;;;4.80;99.70;;;;;;10329257;28;20743;-78
2023/11/29 17:51:19;;;;;;;3.50;3.20;;;4.90;99.20;;;;;;10327280;28;20603;-78
2023/11/29 17:56:21;;;;;;;4.20;3.90;;;5.00;99.10;;;;;;10328563;28;20640;-79
2023/11/29 18:01:23;;;;;;;4.20;3.80;;;5.00;99.00;;;;;;10328868;28;20702;-79
2023/11/29 18:06:27;;;;;;;3.57;3.33;;;5.10;98.80;;;;;;10324714;28;20223;-78
2023/11/29 18:11:30;;;;;;;5.70;5.00;;;5.20;99.00;;;;;;10332296;28;20223;-78
2023/11/29 18:16:32;;;;;;;5.03;4.63;;;5.20;98.60;;;;;;10322623;28;20223;-78
2023/11/29 18:21:36;;;;;;;4.40;4.00;;;5.30;98.50;;;;;;10311776;28;20211;-78
2023/11/29 18:26:38;;;;;;;5.50;4.87;;;5.30;98.90;;;;;;10325782;28;20215;-79
2023/11/29 18:31:41;;;;;;;5.40;4.90;;;5.30;99.80;;;;;;10327018;28;20672;-77
2023/11/29 18:36:44;;;;;;;7.47;6.80;;;5.30;99.90;;;;;;10327292;28;20228;-79
2023/11/29 18:41:47;;;;;;;7.53;6.93;;;5.30;99.90;;;;;;10340295;28;20253;-78
2023/11/29 18:46:49;;;;;;;6.37;5.00;;;5.30;99.90;;;;;;10316332;28;20309;-77
2023/11/29 18:51:53;;;;;;;5.43;4.97;;;5.20;99.50;;;;;;10324436;28;20227;-76
2023/11/29 18:56:55;;;;;;;4.53;4.23;;;5.10;99.70;;;;;;10323973;28;20233;-75
2023/11/29 19:01:57;;;;;;;5.37;4.97;;;4.90;99.90;;;;;;10317647;28;20692;-77
2023/11/29 19:07:01;;;;;;;6.77;6.17;;;4.80;99.90;;;;;;10320613;28;20227;-79
2023/11/29 19:12:04;;;;;;;4.70;4.40;;;4.60;99.90;;;;;;10329056;28;20216;-77
2023/11/29 19:17:07;;;;;;;5.40;4.90;;;4.50;99.90;;;;;;10326617;28;20231;-78
2023/11/29 19:22:10;;;;;;;7.90;7.20;;;4.40;99.90;;;;;;10322810;28;20293;-76
2023/11/29 19:27:14;;;;;;;5.43;4.93;;;4.40;99.90;;;;;;10308819;28;20235;-78
2023/11/29 19:32:16;;;;;;;5.50;5.00;;;4.30;99.90;;;;;;10304301;28;20239;-78
2023/11/29 19:37:20;;;;;;;4.97;4.67;;;4.20;99.90;;;;;;10308826;28;20617;-78
2023/11/29 19:42:23;;;;;;;5.70;5.20;;;4.20;99.90;;;;;;10328810;28;20195;-77
2023/11/29 19:47:25;;;;;;;4.60;4.27;;;4.20;99.90;;;;;;10324336;28;20731;-76
2023/11/29 19:52:29;;;;;;;5.13;4.70;;;4.20;99.90;;;;;;10295863;28;20227;-75
2023/11/29 19:57:31;;;;;;;5.53;5.03;;;4.20;99.90;;;;;;10307708;28;20215;-77
2023/11/29 20:02:34;;;;;;;5.83;5.33;;;4.20;99.90;;;;;;10320148;28;20557;-78
2023/11/29 20:07:38;;;;;;;5.20;4.70;;;4.20;99.90;;;;;;10314697;28;20218;-75
2023/11/29 20:12:40;;;;;;;5.10;4.67;;;4.30;99.90;;;;;;10307486;28;20230;-77
2023/11/29 20:17:42;;;;;;;5.20;4.80;;;4.30;99.90;;;;;;10328865;28;20723;-78
2023/11/29 20:22:46;;;;;;;5.53;5.13;;;4.30;99.90;;;;;;10310933;28;20195;-77
2023/11/29 20:27:49;;;;;;;5.37;4.97;;;4.40;99.90;;;;;;10331008;28;20286;-78
2023/11/29 20:32:52;;;;;;;4.40;4.10;;;4.40;99.90;;;;;;10309350;28;20776;-78
2023/11/29 20:37:56;;;;;;;6.43;5.43;;;4.50;99.90;;;;;;10319447;28;20223;-77
2023/11/29 20:42:58;;;;;;;5.87;5.40;;;4.50;99.90;;;;;;10332192;28;20203;-78
2023/11/29 20:48:01;;;;;;;6.30;5.47;;;4.50;99.90;;;;;;10322832;28;20231;-77
2023/11/29 20:53:04;;;;;;;5.70;5.30;;;4.50;99.90;;;;;;10325650;28;20215;-77
2023/11/29 20:58:07;;;;;;;5.70;5.00;;;4.60;99.90;;;;;;10300959;28;20612;-78
2023/11/29 21:03:09;;;;;;;6.57;5.97;;;4.60;99.90;;;;;;10323465;28;20192;-78
2023/11/29 21:08:13;;;;;;;5.10;4.70;;;4.60;99.90;;;;;;10314031;28;20219;-77
2023/11/29 21:13:18;;;;;;;5.77;5.27;;;4.60;99.90;;;;;;10297684;28;20237;-77
2023/11/29 21:18:20;;;;;;;5.07;4.57;;;4.60;99.70;;;;;;10300156;28;20273;-78
2023/11/29 21:23:24;;;;;;;5.40;5.00;;;4.60;99.70;;;;;;10304528;28;20701;-77
2023/11/29 21:28:26;;;;;;;6.00;5.50;;;4.50;99.90;;;;;;10315543;28;20207;-77
2023/11/29 21:33:29;;;;;;;5.07;4.77;;;4.50;99.90;;;;;;10301607;28;20223;-77
2023/11/29 21:38:32;;;;;;;5.60;5.10;;;4.40;99.60;;;;;;10307812;28;20223;-76
2023/11/29 21:43:35;;;;;;;6.17;5.57;;;4.50;99.20;;;;;;10322487;28;20285;-78
2023/11/29 21:48:37;;;;;;;5.67;5.10;;;4.50;99.30;;;;;;10317941;28;20700;-78
2023/11/29 21:53:41;;;;;;;5.77;5.27;;;4.60;99.30;;;;;;10314524;28;20234;-76
2023/11/29 21:58:44;;;;;;;4.33;4.03;;;4.60;99.20;;;;;;10308512;28;20199;-77
2023/11/29 22:03:46;;;;;;;5.70;5.20;;;4.60;98.80;;;;;;10315775;28;20608;-78
2023/11/29 22:08:50;;;;;;;5.23;4.83;;;4.70;98.90;;;;;;10307830;28;20219;-78
2023/11/29 22:13:52;;;;;;;5.87;5.37;;;4.70;99.60;;;;;;10300363;28;20233;-78
2023/11/29 22:18:55;;;;;;;6.80;5.00;;;4.70;99.90;;;;;;10310803;28;20243;-78
2023/11/29 22:23:59;;;;;;;4.60;4.20;;;4.70;99.70;;;;;;10299614;28;20180;-78
2023/11/29 22:29:01;;;;;;;4.90;4.57;;;4.70;99.70;;;;;;10315757;28;20578;-79
2023/11/29 22:34:04;;;;;;;5.93;5.40;;;4.70;99.70;;;;;;10297001;28;20290;-78
2023/11/29 22:39:07;;;;;;;5.20;4.70;;;4.70;99.70;;;;;;10307388;28;20279;-78
2023/11/29 22:44:10;;;;;;;4.30;4.00;;;4.60;99.30;;;;;;10313733;28;20215;-78
2023/11/29 22:49:12;;;;;;;7.93;4.60;;;4.60;99.30;;;;;;10311689;28;20203;-77
2023/11/29 22:54:16;;;;;;;5.03;4.63;;;4.50;99.10;;;;;;10309375;28;20303;-77
2023/11/29 22:59:18;;;;;;;5.00;4.60;;;4.50;99.50;;;;;;10313672;28;20578;-77
2023/11/29 23:04:21;;;;;;;5.53;5.10;;;4.40;99.60;;;;;;10302023;28;20291;-80
2023/11/29 23:09:25;;;;;;;5.63;5.13;;;4.30;99.60;;;;;;10328334;28;20203;-77
2023/11/29 23:14:27;;;;;;;5.33;4.83;;;4.20;99.90;;;;;;10303396;28;20396;-78
2023/11/29 23:19:30;;;;;;;6.03;5.53;;;4.10;99.90;;;;;;10308566;28;20211;-77
2023/11/29 23:24:34;;;;;;;6.20;5.60;;;4.10;99.90;;;;;;10325323;28;20278;-77
2023/11/29 23:29:37;;;;;;;5.33;4.83;;;4.00;99.90;;;;;;10320068;28;20203;-78
2023/11/29 23:34:40;;;;;;;5.93;5.43;;;4.00;99.90;;;;;;10320222;28;20223;-78
2023/11/29 23:39:44;;;;;;;5.87;5.37;;;4.00;99.90;;;;;;10320478;28;20668;-76
2023/11/29 23:44:46;;;;;;;7.10;6.50;;;4.00;99.90;;;;;;10318484;28;20222;-78
2023/11/29 23:49:48;;;;;;;6.20;5.60;;;4.00;99.90;;;;;;10318212;28;20195;-78
2023/11/29 23:54:52;;;;;;;5.83;5.40;;;4.00;99.90;;;;;;10316703;28;20230;-78
2023/11/29 23:59:54;;;;;;;6.67;6.03;;;4.00;99.90;;;;;;10317358;28;20261;-78
